»·PEaware :: FDX210 KOAK-KMFR

FDX210 :: KOAK-KMFR

FLIGHT INFORMATION

Flight Status: Arrived
Operator:
Federal Express
More flights by this operator :: More flights under this callsign
Pilot: Anonymous 16446 (16446)
Aircraft: BOEING 727-200
(B722)
More flights by this aircraft type
Origin: KOAK Metro Oakland Intl
United States
Destination: KMFR Rogue Valley Intl-Medford
United States
More flights between these airports :: More routes between these airports
Route: +SLNT1 RBL LMT LANKS
File this flight plan on PilotEdge
Remarks:
Altitude:
(Current/Filed)
29,000ft
Speed:
(Current/Filed)
475kts
Departed: 23-Aug-18 10:34 PM
Arrived: 23-Aug-18 11:40 PM
Distance/Time
Traveled:
281nm/1:06
Distance/Time
To Go:
Arrived

Flight Plot

Page will automatically refresh every two minutes.

Flight plan parsing failed; only flown route is shown


Map Options




Map Legend


Flown Route
Filed Route
Departure Airport
Arrival Airport
Navaid (VOR, NDB)
Fix

Horizontal Profiles

Position Reports

Time Latitude Longitude Heading Altitude Ground
Speed
23-Aug-18 21:40 37.716956 -122.217990 136 18ft 0kts
23-Aug-18 21:41 37.716956 -122.217990 136 18ft 0kts
23-Aug-18 21:42 37.716956 -122.217990 136 18ft 0kts
23-Aug-18 21:43 37.716956 -122.217990 136 18ft 0kts
23-Aug-18 21:44 37.716956 -122.217990 136 18ft 0kts
23-Aug-18 21:45 37.716956 -122.217990 136 18ft 0kts
23-Aug-18 21:46 37.716956 -122.217990 136 18ft 0kts
23-Aug-18 21:47 37.716956 -122.217990 136 18ft 0kts
23-Aug-18 21:48 37.716956 -122.217990 136 18ft 0kts
23-Aug-18 21:49 37.716956 -122.217990 136 18ft 0kts
23-Aug-18 21:50 37.716956 -122.217990 136 18ft 0kts
23-Aug-18 21:51 37.716956 -122.217990 136 18ft 0kts
23-Aug-18 21:52 37.716956 -122.217990 136 18ft 0kts
23-Aug-18 21:53 37.716956 -122.217990 136 18ft 0kts
23-Aug-18 21:54 37.716956 -122.217990 136 18ft 0kts
23-Aug-18 21:55 37.716956 -122.217990 136 18ft 0kts
23-Aug-18 21:56 37.716956 -122.217990 136 18ft 0kts
23-Aug-18 21:57 37.716956 -122.217990 136 18ft 0kts
23-Aug-18 21:58 37.716956 -122.217990 136 18ft 0kts
23-Aug-18 21:59 37.716956 -122.217990 136 18ft 0kts
23-Aug-18 22:00 37.716956 -122.217990 136 18ft 0kts
23-Aug-18 22:01 37.716956 -122.217990 136 18ft 0kts
23-Aug-18 22:02 37.716956 -122.217990 136 18ft 0kts
23-Aug-18 22:03 37.716956 -122.217990 136 18ft 0kts
23-Aug-18 22:04 37.716956 -122.217990 136 18ft 0kts
23-Aug-18 22:05 37.716956 -122.217990 136 18ft 0kts
23-Aug-18 22:06 37.716956 -122.217990 136 18ft 0kts
23-Aug-18 22:07 37.716957 -122.217991 136 18ft 0kts
23-Aug-18 22:08 37.716982 -122.218022 136 18ft 2kts
23-Aug-18 22:09 37.717446 -122.218495 166 18ft 2kts
23-Aug-18 22:10 37.717916 -122.218328 226 18ft 1kts
23-Aug-18 22:11 37.717932 -122.218308 225 18ft 0kts
23-Aug-18 22:12 37.717932 -122.218308 225 18ft 0kts
23-Aug-18 22:13 37.717932 -122.218308 225 18ft 0kts
23-Aug-18 22:14 37.717932 -122.218308 225 18ft 0kts
23-Aug-18 22:15 37.717932 -122.218308 225 18ft 0kts
23-Aug-18 22:16 37.717932 -122.218308 225 18ft 0kts
23-Aug-18 22:17 37.717932 -122.218308 225 18ft 0kts
23-Aug-18 22:18 37.717932 -122.218308 225 18ft 0kts
23-Aug-18 22:19 37.717932 -122.218308 225 18ft 0kts
23-Aug-18 22:20 37.717932 -122.218308 225 18ft 0kts
23-Aug-18 22:21 37.717932 -122.218308 225 19ft 0kts
23-Aug-18 22:22 37.717932 -122.218308 225 19ft 0kts
23-Aug-18 22:23 37.717932 -122.218308 225 19ft 0kts
23-Aug-18 22:24 37.717932 -122.218308 225 19ft 0kts
23-Aug-18 22:25 37.717931 -122.218308 225 18ft 0kts
23-Aug-18 22:26 37.717931 -122.218308 225 18ft 0kts
23-Aug-18 22:27 37.717931 -122.218308 224 18ft 0kts
23-Aug-18 22:28 37.716739 -122.219568 221 18ft 17kts
23-Aug-18 22:29 37.713944 -122.220934 229 19ft 17kts
23-Aug-18 22:30 37.711554 -122.223673 208 18ft 0kts
23-Aug-18 22:31 37.710489 -122.223916 133 18ft 15kts
23-Aug-18 22:32 37.706343 -122.217746 129 18ft 27kts
23-Aug-18 22:33 37.702886 -122.213559 165 18ft 0kts
23-Aug-18 22:34 37.702497 -122.215823 309 18ft 33kts
23-Aug-18 22:35 37.728674 -122.258545 291 2415ft 193kts
23-Aug-18 22:36 37.751834 -122.334040 293 6413ft 240kts
23-Aug-18 22:37 37.806960 -122.380533 5 9120ft 320kts
23-Aug-18 22:38 37.887705 -122.381813 358 13155ft 322kts
23-Aug-18 22:39 37.985110 -122.382212 358 16005ft 362kts
23-Aug-18 22:40 38.087712 -122.383819 357 19004ft 381kts
23-Aug-18 22:41 38.190566 -122.386174 357 21507ft 397kts
23-Aug-18 22:42 38.302054 -122.388614 356 23764ft 411kts
23-Aug-18 22:43 38.417723 -122.391004 356 25592ft 424kts
23-Aug-18 22:44 38.536754 -122.393822 355 27230ft 434kts
23-Aug-18 22:45 38.659113 -122.396403 356 28069ft 453kts
23-Aug-18 22:46 38.786140 -122.399168 356 28064ft 461kts
23-Aug-18 22:47 38.914444 -122.402100 356 28064ft 467kts
23-Aug-18 22:48 39.044813 -122.405003 355 28065ft 472kts
23-Aug-18 22:49 39.170738 -122.407668 356 28060ft 477kts
23-Aug-18 22:50 39.303128 -122.400528 7 28040ft 484kts
23-Aug-18 22:51 39.435419 -122.371828 6 28008ft 488kts
23-Aug-18 22:52 39.571525 -122.344012 6 28008ft 508kts
23-Aug-18 22:53 39.712789 -122.315384 6 28007ft 525kts
23-Aug-18 22:54 39.857264 -122.285445 6 27996ft 524kts
23-Aug-18 22:55 39.999513 -122.256210 6 27991ft 514kts
23-Aug-18 22:56 40.134537 -122.228270 6 27986ft 507kts
23-Aug-18 22:57 40.271532 -122.200032 6 27987ft 500kts
23-Aug-18 22:58 40.407887 -122.171672 6 27989ft 494kts
23-Aug-18 22:59 40.542722 -122.143593 5 27989ft 490kts
23-Aug-18 23:00 40.675114 -122.106648 8 27989ft 486kts
23-Aug-18 23:01 40.806426 -122.072884 8 27991ft 483kts
23-Aug-18 23:02 40.935454 -122.040436 7 27988ft 464kts
23-Aug-18 23:03 41.059454 -122.008926 6 27988ft 448kts
23-Aug-18 23:04 41.174041 -121.980150 5 28005ft 434kts
23-Aug-18 23:05 41.268328 -121.956347 5 28060ft 423kts
23-Aug-18 23:06 41.381538 -121.927434 5 28078ft 410kts
23-Aug-18 23:07 41.491996 -121.899208 4 28083ft 401kts
23-Aug-18 23:08 41.600130 -121.871405 4 27875ft 395kts
23-Aug-18 23:09 41.710953 -121.842885 5 25885ft 404kts
23-Aug-18 23:10 41.819882 -121.814644 5 24546ft 395kts
23-Aug-18 23:11 41.926089 -121.786940 6 23265ft 386kts
23-Aug-18 23:12 42.027140 -121.760667 6 19718ft 363kts
23-Aug-18 23:13 42.118968 -121.736678 7 15512ft 335kts
23-Aug-18 23:14 42.190839 -121.778998 283 12529ft 293kts
23-Aug-18 23:15 42.199322 -121.884834 273 9878ft 279kts
23-Aug-18 23:16 42.214386 -121.984801 287 7466ft 271kts
23-Aug-18 23:17 42.238611 -122.085510 287 6630ft 293kts
23-Aug-18 23:18 42.263957 -122.191936 287 6626ft 301kts
23-Aug-18 23:19 42.289641 -122.300780 288 6603ft 306kts
23-Aug-18 23:20 42.311808 -122.395742 288 6558ft 228kts
23-Aug-18 23:21 42.328639 -122.469287 287 6583ft 196kts
23-Aug-18 23:22 42.350060 -122.535108 337 6590ft 195kts
23-Aug-18 23:23 42.403211 -122.538162 329 6559ft 192kts
23-Aug-18 23:24 42.441412 -122.565757 349 6555ft 187kts
23-Aug-18 23:25 42.499672 -122.575338 343 6570ft 180kts
23-Aug-18 23:26 42.541613 -122.590879 342 6573ft 192kts
23-Aug-18 23:27 42.591794 -122.618986 327 6576ft 200kts
23-Aug-18 23:28 42.646770 -122.667204 324 6575ft 207kts
23-Aug-18 23:29 42.684022 -122.708893 308 6569ft 210kts
23-Aug-18 23:30 42.707140 -122.781936 287 6574ft 213kts
23-Aug-18 23:31 42.722482 -122.860151 283 6572ft 215kts
23-Aug-18 23:32 42.722595 -122.934471 230 6372ft 179kts
23-Aug-18 23:33 42.673401 -122.944174 181 5082ft 176kts
23-Aug-18 23:34 42.625877 -122.937563 179 4551ft 154kts
23-Aug-18 23:35 42.582688 -122.931771 181 4520ft 158kts
23-Aug-18 23:36 42.539830 -122.923621 167 4069ft 158kts
23-Aug-18 23:37 42.497657 -122.912096 171 3488ft 154kts
23-Aug-18 23:38 42.455066 -122.909702 174 2954ft 154kts
23-Aug-18 23:39 42.414803 -122.894639 157 2076ft 151kts
23-Aug-18 23:40 42.378200 -122.875037 158 1329ft 108kts
23-Aug-18 23:41 42.369470 -122.871648 283 1329ft 0kts
23-Aug-18 23:42 42.370506 -122.874535 201 1329ft 2kts
23-Aug-18 23:43 42.370458 -122.874560 200 1329ft 0kts
23-Aug-18 23:44 42.386624 -122.879371 156 1387ft 141kts
23-Aug-18 23:45 42.394756 -122.883367 158 1565ft 145kts
23-Aug-18 23:46 42.375104 -122.873373 157 1329ft 88kts
23-Aug-18 23:47 42.414351 -122.894410 157 2064ft 151kts
23-Aug-18 23:48 42.377878 -122.874877 156 1329ft 105kts
23-Aug-18 23:49 42.380198 -122.876053 156 1330ft 127kts
23-Aug-18 23:50 42.380198 -122.876053 156 1330ft 127kts
23-Aug-18 23:51 42.380198 -122.876053 156 1330ft 127kts
23-Aug-18 23:52 42.380198 -122.876053 156 1330ft 127kts
23-Aug-18 23:53 42.380198 -122.876053 156 1330ft 127kts
23-Aug-18 23:54 42.380198 -122.876053 156 1330ft 127kts
23-Aug-18 23:55 42.380198 -122.876053 156 1330ft 127kts

Navigation Log

Ident Type
Flight plan parsing failed, navigation log unavailable